createdAt,value
2023-05-20T00:00:07.768Z,12.60
2023-05-20T00:02:34.917Z,10.80
2023-05-20T00:05:02.382Z,10.70
2023-05-20T00:07:29.501Z,10.70
2023-05-20T00:09:56.596Z,10.70
2023-05-20T00:12:23.601Z,10.60
2023-05-20T00:14:50.486Z,10.60
2023-05-20T00:17:17.740Z,10.60
2023-05-20T00:19:44.781Z,10.60
2023-05-20T00:22:11.785Z,10.60
2023-05-20T00:24:38.775Z,10.60
2023-05-20T00:27:06.023Z,10.60
2023-05-20T00:29:34.082Z,10.50
2023-05-20T00:32:01.256Z,10.60
2023-05-20T00:34:28.721Z,10.50
2023-05-20T00:36:56.138Z,10.50
2023-05-20T00:39:23.282Z,10.40
2023-05-20T00:41:50.321Z,10.50
2023-05-20T00:44:18.884Z,10.40
2023-05-20T00:46:48.197Z,10.40
2023-05-20T00:49:16.148Z,10.40
2023-05-20T00:51:43.186Z,10.40
2023-05-20T00:54:10.915Z,10.40
2023-05-20T00:56:38.166Z,10.40
2023-05-20T00:59:06.458Z,10.40
2023-05-20T01:01:33.511Z,10.40
2023-05-20T01:04:00.924Z,10.40
2023-05-20T01:06:28.298Z,10.40
2023-05-20T01:08:55.356Z,10.30
2023-05-20T01:11:41.514Z,10.30
2023-05-20T01:14:10.263Z,10.30
2023-05-20T01:16:39.432Z,10.30
2023-05-20T01:19:22.198Z,10.30
2023-05-20T01:21:51.610Z,10.30
2023-05-20T01:24:18.566Z,10.30
2023-05-20T01:26:48.487Z,10.30
2023-05-20T01:29:18.723Z,10.30
2023-05-20T01:31:48.253Z,10.30
2023-05-20T01:34:16.228Z,10.30
2023-05-20T01:36:45.813Z,10.30
2023-05-20T01:39:13.801Z,10.30
2023-05-20T01:41:42.042Z,10.30
2023-05-20T01:44:10.416Z,10.20
2023-05-20T01:46:37.622Z,10.30
2023-05-20T01:49:04.822Z,10.20
2023-05-20T01:51:33.681Z,10.30
2023-05-20T01:54:04.026Z,10.30
2023-05-20T01:56:31.194Z,10.30
2023-05-20T01:58:58.175Z,10.30
2023-05-20T02:01:25.163Z,10.40
2023-05-20T02:03:52.275Z,10.30
2023-05-20T02:06:19.402Z,10.30
2023-05-20T02:08:46.408Z,10.40
2023-05-20T02:11:13.616Z,10.30
2023-05-20T02:13:40.623Z,10.30
2023-05-20T02:16:07.788Z,10.30
2023-05-20T02:18:35.395Z,10.30
2023-05-20T02:21:04.143Z,10.30
2023-05-20T02:23:31.801Z,10.40
2023-05-20T02:25:58.776Z,10.50
2023-05-20T02:28:25.772Z,10.40
2023-05-20T02:30:52.855Z,10.50
2023-05-20T02:33:20.167Z,10.50
2023-05-20T02:35:47.223Z,10.50
2023-05-20T02:38:15.492Z,10.50
2023-05-20T02:40:45.079Z,10.50
2023-05-20T02:43:12.270Z,10.50
2023-05-20T02:45:39.461Z,10.40
2023-05-20T02:48:06.782Z,10.30
2023-05-20T02:50:33.853Z,10.30
2023-05-20T02:53:00.939Z,10.30
2023-05-20T02:55:28.453Z,10.30
2023-05-20T02:57:55.675Z,10.40
2023-05-20T03:00:23.705Z,10.40
2023-05-20T03:02:50.723Z,10.40
2023-05-20T03:05:17.694Z,10.40
2023-05-20T03:07:46.523Z,10.30
2023-05-20T03:10:13.575Z,10.30
2023-05-20T03:12:40.637Z,10.30
2023-05-20T03:15:08.108Z,10.30
2023-05-20T03:17:35.307Z,10.20
2023-05-20T03:20:03.998Z,10.20
2023-05-20T03:22:31.021Z,10.20
2023-05-20T03:24:58.452Z,10.20
2023-05-20T03:27:26.673Z,10.20
2023-05-20T03:29:55.959Z,10.10
2023-05-20T03:32:23.051Z,10.10
2023-05-20T03:34:50.088Z,10.10
2023-05-20T03:37:17.039Z,10.10
2023-05-20T03:39:43.992Z,10.10
2023-05-20T03:42:11.218Z,10.10
2023-05-20T03:44:38.225Z,10.10
2023-05-20T03:47:05.427Z,10.00
2023-05-20T03:49:32.790Z,10.10
2023-05-20T03:52:00.117Z,10.00
2023-05-20T03:54:28.165Z,10.10
2023-05-20T03:56:56.656Z,10.10
2023-05-20T03:59:23.623Z,10.10
2023-05-20T04:01:50.684Z,10.10
2023-05-20T04:04:17.733Z,10.00
2023-05-20T04:06:44.886Z,10.00
2023-05-20T04:09:11.948Z,10.00
2023-05-20T04:11:39.056Z,10.00
2023-05-20T04:14:05.989Z,10.10
2023-05-20T04:16:33.621Z,10.10
2023-05-20T04:19:01.100Z,10.10
2023-05-20T04:21:28.402Z,10.10
2023-05-20T04:23:55.679Z,10.10
2023-05-20T04:26:22.781Z,10.10
2023-05-20T04:28:50.015Z,10.10
2023-05-20T04:31:17.358Z,10.10
2023-05-20T04:33:44.701Z,10.10
2023-05-20T04:36:16.439Z,10.00
2023-05-20T04:38:44.747Z,10.00
2023-05-20T04:41:12.120Z,10.00
2023-05-20T04:43:40.324Z,10.00
2023-05-20T04:46:07.705Z,10.10
2023-05-20T04:48:34.782Z,10.10
2023-05-20T04:51:02.258Z,10.10
2023-05-20T04:53:30.689Z,10.20
2023-05-20T04:55:57.946Z,10.20
2023-05-20T04:58:25.348Z,10.20
2023-05-20T05:00:53.123Z,10.20
2023-05-20T05:03:20.128Z,10.20
2023-05-20T05:05:47.149Z,10.20
2023-05-20T05:08:14.215Z,10.20
2023-05-20T05:10:41.227Z,10.10
2023-05-20T05:13:08.169Z,10.10
2023-05-20T05:15:35.488Z,10.10
2023-05-20T05:18:02.708Z,10.10
2023-05-20T05:20:29.707Z,10.10
2023-05-20T05:22:56.727Z,10.10
2023-05-20T05:25:23.765Z,10.10
2023-05-20T05:27:50.790Z,10.20
2023-05-20T05:30:18.285Z,10.10
2023-05-20T05:32:45.657Z,10.20
2023-05-20T05:35:12.843Z,10.20
2023-05-20T05:37:39.858Z,10.20
2023-05-20T05:40:08.297Z,10.10
2023-05-20T05:42:35.361Z,10.20
2023-05-20T05:45:02.553Z,10.10
2023-05-20T05:47:32.702Z,10.10
2023-05-20T05:50:00.488Z,10.10
2023-05-20T05:52:27.674Z,10.20
2023-05-20T05:54:55.747Z,10.20
2023-05-20T05:57:22.816Z,10.20
2023-05-20T05:59:49.830Z,10.30
2023-05-20T06:02:17.074Z,10.30
2023-05-20T06:04:44.325Z,10.20
2023-05-20T06:07:11.300Z,10.20
2023-05-20T06:09:38.955Z,10.20
2023-05-20T06:12:06.351Z,10.20
2023-05-20T06:14:33.494Z,10.20
2023-05-20T06:17:01.136Z,10.30
2023-05-20T06:19:28.419Z,10.30
2023-05-20T06:21:56.909Z,10.30
2023-05-20T06:24:24.650Z,10.30
2023-05-20T06:26:52.404Z,10.30
2023-05-20T06:29:19.585Z,10.30
2023-05-20T06:31:46.611Z,10.30
2023-05-20T06:34:13.778Z,10.30
2023-05-20T06:36:41.144Z,10.40
2023-05-20T06:39:12.385Z,10.40
2023-05-20T06:41:40.337Z,10.50
2023-05-20T06:44:08.210Z,10.50
2023-05-20T06:46:35.470Z,10.60
2023-05-20T06:49:03.183Z,10.60
2023-05-20T06:51:30.189Z,10.60
2023-05-20T06:53:57.184Z,10.60
2023-05-20T06:56:24.202Z,10.60
2023-05-20T06:58:51.213Z,10.70
2023-05-20T07:01:18.653Z,10.70
2023-05-20T07:03:46.027Z,10.80
2023-05-20T07:06:13.020Z,10.80
2023-05-20T07:08:40.094Z,10.80
2023-05-20T07:11:07.068Z,10.80
2023-05-20T07:13:34.283Z,10.80
2023-05-20T07:16:01.426Z,10.80
2023-05-20T07:18:29.227Z,10.80
2023-05-20T07:20:59.229Z,10.80
2023-05-20T07:23:26.445Z,10.90
2023-05-20T07:25:54.424Z,11.00
2023-05-20T07:28:22.862Z,11.10
2023-05-20T07:30:54.181Z,11.00
2023-05-20T07:33:22.563Z,11.20
2023-05-20T07:35:49.654Z,11.30
2023-05-20T07:38:16.765Z,11.40
2023-05-20T07:40:43.778Z,11.50
2023-05-20T07:43:10.887Z,11.60
2023-05-20T07:45:38.417Z,11.70
2023-05-20T07:48:08.798Z,11.80
2023-05-20T07:50:36.610Z,11.90
2023-05-20T07:53:03.574Z,12.00
2023-05-20T07:55:31.428Z,12.00
2023-05-20T07:57:58.460Z,12.00
2023-05-20T08:00:25.749Z,12.00
2023-05-20T08:02:52.884Z,12.00
2023-05-20T08:05:20.079Z,12.00
2023-05-20T08:07:47.149Z,12.10
2023-05-20T08:10:14.378Z,12.10
2023-05-20T08:12:41.406Z,12.20
2023-05-20T08:15:09.091Z,12.20
2023-05-20T08:17:36.355Z,12.40
2023-05-20T08:20:04.161Z,12.60
2023-05-20T08:22:31.839Z,12.70
2023-05-20T08:24:58.834Z,12.80
2023-05-20T08:27:26.333Z,12.70
2023-05-20T08:29:53.327Z,12.70
2023-05-20T08:32:20.354Z,12.70
2023-05-20T08:34:49.252Z,12.70
2023-05-20T08:37:16.831Z,12.70
2023-05-20T08:39:46.265Z,12.70
2023-05-20T08:42:13.886Z,12.90
2023-05-20T08:44:42.147Z,12.90
2023-05-20T08:47:10.411Z,13.00
2023-05-20T08:49:37.795Z,13.20
2023-05-20T08:52:05.731Z,13.40
2023-05-20T08:54:46.165Z,15.10
2023-05-20T08:57:14.174Z,13.80
2023-05-20T08:59:49.664Z,13.90
2023-05-20T09:02:16.841Z,14.00
2023-05-20T09:04:44.020Z,14.20
2023-05-20T09:07:11.125Z,14.30
2023-05-20T09:09:38.156Z,14.20
2023-05-20T09:12:05.458Z,14.20
2023-05-20T09:14:32.583Z,14.30
2023-05-20T09:17:00.229Z,14.60
2023-05-20T09:19:27.397Z,14.60
2023-05-20T09:21:55.289Z,14.70
2023-05-20T09:24:26.649Z,14.90
2023-05-20T09:26:54.032Z,14.80
2023-05-20T09:29:21.908Z,14.70
2023-05-20T09:31:50.022Z,14.80
2023-05-20T09:34:18.061Z,14.60
2023-05-20T09:36:45.543Z,14.60
2023-05-20T09:39:19.713Z,14.60
2023-05-20T09:41:55.027Z,14.60
2023-05-20T09:44:23.174Z,14.60
2023-05-20T09:46:53.295Z,14.60
2023-05-20T09:49:23.347Z,14.60
2023-05-20T09:51:51.319Z,14.60
2023-05-20T09:54:20.637Z,14.60
2023-05-20T09:56:48.217Z,14.60
2023-05-20T09:59:21.698Z,14.70
2023-05-20T10:01:48.872Z,14.80
2023-05-20T10:04:18.258Z,14.90
2023-05-20T10:07:03.428Z,15.10
2023-05-20T10:09:36.635Z,15.10
2023-05-20T10:12:16.024Z,14.10
2023-05-20T10:15:19.658Z,15.20
2023-05-20T10:18:01.787Z,15.20
2023-05-20T10:20:29.471Z,15.20
2023-05-20T10:23:00.268Z,15.40
2023-05-20T10:25:28.510Z,15.40
2023-05-20T10:28:08.186Z,15.20
2023-05-20T10:30:36.259Z,15.10
2023-05-20T10:33:05.921Z,15.10
2023-05-20T10:35:33.289Z,15.10
2023-05-20T10:38:11.487Z,15.20
2023-05-20T10:40:39.017Z,15.40
2023-05-20T10:43:16.271Z,15.60
2023-05-20T10:45:53.484Z,15.80
2023-05-20T10:48:43.221Z,15.90
2023-05-20T10:51:14.488Z,16.00
2023-05-20T10:53:45.182Z,15.90
2023-05-20T10:56:23.975Z,15.80
2023-05-20T10:58:52.367Z,15.80
2023-05-20T11:01:25.032Z,15.80
2023-05-20T11:03:54.315Z,16.00
2023-05-20T11:06:27.388Z,16.30
2023-05-20T11:08:54.736Z,16.30
2023-05-20T11:11:23.392Z,16.40
2023-05-20T11:13:53.588Z,16.60
2023-05-20T11:16:22.585Z,16.90
2023-05-20T11:18:50.687Z,17.00
2023-05-20T11:21:20.316Z,17.00
2023-05-20T11:23:47.493Z,17.10
2023-05-20T11:26:14.547Z,17.20
2023-05-20T11:28:42.084Z,17.30
2023-05-20T11:31:10.202Z,17.20
2023-05-20T11:33:42.640Z,17.10
2023-05-20T11:36:26.454Z,17.10
2023-05-20T11:38:55.521Z,17.10
2023-05-20T11:41:28.901Z,17.30
2023-05-20T11:43:58.378Z,17.40
2023-05-20T11:46:25.925Z,17.40
2023-05-20T11:48:57.307Z,17.50
2023-05-20T11:51:27.239Z,17.50
2023-05-20T11:53:59.222Z,17.50
2023-05-20T11:56:26.256Z,17.60
2023-05-20T11:58:53.297Z,17.80
2023-05-20T12:01:22.938Z,17.90
2023-05-20T12:03:50.814Z,17.90
2023-05-20T12:06:18.498Z,17.90
2023-05-20T12:08:46.496Z,17.90
2023-05-20T12:11:13.801Z,18.00
2023-05-20T12:13:41.080Z,18.00
2023-05-20T12:16:08.241Z,17.80
2023-05-20T12:18:35.226Z,17.80
2023-05-20T12:21:02.285Z,18.10
2023-05-20T12:23:30.922Z,18.50
2023-05-20T12:25:57.891Z,18.10
2023-05-20T12:28:24.883Z,18.10
2023-05-20T12:30:52.026Z,18.20
2023-05-20T12:33:20.805Z,18.30
2023-05-20T12:35:47.970Z,18.60
2023-05-20T12:38:14.964Z,19.10
2023-05-20T12:40:41.974Z,19.40
2023-05-20T12:43:09.138Z,19.30
2023-05-20T12:45:36.218Z,19.10
2023-05-20T12:48:07.380Z,18.80
2023-05-20T12:50:38.186Z,18.70
2023-05-20T12:53:05.565Z,18.80
2023-05-20T12:55:32.570Z,18.70
2023-05-20T12:57:59.609Z,18.50
2023-05-20T13:00:26.584Z,18.60
2023-05-20T13:02:54.878Z,18.40
2023-05-20T13:05:22.785Z,18.30
2023-05-20T13:07:49.780Z,18.30
2023-05-20T13:10:17.987Z,18.30
2023-05-20T13:12:47.765Z,19.20
2023-05-20T13:15:15.034Z,18.60
2023-05-20T13:17:42.881Z,18.80
2023-05-20T13:20:11.174Z,18.90
2023-05-20T13:22:38.232Z,18.70
2023-05-20T13:25:05.897Z,18.70
2023-05-20T13:27:32.906Z,18.70
2023-05-20T13:30:01.877Z,18.60
2023-05-20T13:32:28.951Z,18.60
2023-05-20T13:34:57.103Z,18.60
2023-05-20T13:37:24.247Z,18.70
2023-05-20T13:39:51.766Z,19.00
2023-05-20T13:42:18.815Z,19.20
2023-05-20T13:44:45.741Z,19.20
2023-05-20T13:47:12.788Z,19.20
2023-05-20T13:49:39.849Z,19.30
2023-05-20T13:52:06.992Z,19.40
2023-05-20T13:54:33.917Z,19.40
2023-05-20T13:57:01.476Z,19.30
2023-05-20T13:59:28.515Z,19.30
2023-05-20T14:01:55.569Z,19.20
2023-05-20T14:04:25.578Z,19.20
2023-05-20T14:06:52.704Z,19.20
2023-05-20T14:09:19.719Z,19.30
2023-05-20T14:11:47.007Z,19.20
2023-05-20T14:14:14.121Z,19.20
2023-05-20T14:16:41.292Z,19.20
2023-05-20T14:19:09.156Z,19.20
2023-05-20T14:21:36.392Z,19.30
2023-05-20T14:24:03.559Z,19.40
2023-05-20T14:26:30.558Z,19.40
2023-05-20T14:28:57.662Z,19.50
2023-05-20T14:31:24.648Z,19.50
2023-05-20T14:33:51.743Z,19.70
2023-05-20T14:36:18.910Z,19.60
2023-05-20T14:38:47.594Z,19.50
2023-05-20T14:41:15.810Z,19.70
2023-05-20T14:43:42.912Z,19.60
2023-05-20T14:46:10.562Z,19.50
2023-05-20T14:48:38.000Z,19.40
2023-05-20T14:51:05.206Z,19.40
2023-05-20T14:53:32.220Z,19.40
2023-05-20T14:55:59.354Z,19.50
2023-05-20T14:58:26.455Z,19.60
2023-05-20T15:00:54.013Z,19.50
2023-05-20T15:03:24.596Z,19.40
2023-05-20T15:05:51.714Z,19.20
2023-05-20T15:08:18.704Z,19.20
2023-05-20T15:10:46.062Z,19.10
2023-05-20T15:13:13.116Z,19.00
2023-05-20T15:15:40.265Z,19.00
2023-05-20T15:18:07.506Z,19.10
2023-05-20T15:20:34.632Z,19.30
2023-05-20T15:23:01.577Z,19.50
2023-05-20T15:25:28.578Z,19.60
2023-05-20T15:27:55.591Z,19.70
2023-05-20T15:30:22.973Z,19.90
2023-05-20T15:32:50.124Z,19.90
2023-05-20T15:35:17.373Z,19.70
2023-05-20T15:37:44.274Z,19.70
2023-05-20T15:40:17.239Z,19.60
2023-05-20T15:42:44.273Z,19.60
2023-05-20T15:45:11.620Z,19.80
2023-05-20T15:47:40.704Z,19.90
2023-05-20T15:50:08.727Z,20.00
2023-05-20T15:52:36.148Z,20.20
2023-05-20T15:55:03.491Z,20.20
2023-05-20T15:57:30.842Z,20.20
2023-05-20T15:59:58.151Z,20.20
2023-05-20T16:02:25.304Z,20.20
2023-05-20T16:04:52.563Z,20.20
2023-05-20T16:07:19.723Z,20.20
2023-05-20T16:09:46.918Z,20.00
2023-05-20T16:12:16.539Z,19.80
2023-05-20T16:14:44.836Z,19.70
2023-05-20T16:17:12.755Z,19.70
2023-05-20T16:19:39.793Z,19.60
2023-05-20T16:22:06.844Z,19.70
2023-05-20T16:24:33.896Z,19.70
2023-05-20T16:27:00.960Z,21.50
2023-05-20T16:29:27.984Z,19.70
2023-05-20T16:31:55.197Z,19.80
2023-05-20T16:34:22.326Z,19.60
2023-05-20T16:36:49.296Z,19.60
2023-05-20T16:39:16.618Z,19.60
2023-05-20T16:41:43.829Z,19.70
2023-05-20T16:44:11.292Z,18.80
2023-05-20T16:46:38.302Z,19.70
2023-05-20T16:49:05.265Z,19.60
2023-05-20T16:51:32.356Z,19.60
2023-05-20T16:53:59.382Z,19.50
2023-05-20T16:56:26.688Z,19.50
2023-05-20T16:58:53.724Z,19.50
2023-05-20T17:01:21.853Z,19.50
2023-05-20T17:03:49.179Z,19.50
2023-05-20T17:06:16.244Z,19.60
2023-05-20T17:08:43.158Z,19.60
2023-05-20T17:11:10.875Z,19.60
2023-05-20T17:13:37.826Z,19.60
2023-05-20T17:16:05.227Z,19.50
2023-05-20T17:18:32.086Z,19.50
2023-05-20T17:20:59.063Z,19.50
2023-05-20T17:23:26.066Z,19.40
2023-05-20T17:25:53.094Z,19.20
2023-05-20T17:28:20.038Z,19.20
2023-05-20T17:30:47.065Z,19.20
2023-05-20T17:33:14.297Z,19.20
2023-05-20T17:35:41.540Z,19.20
2023-05-20T17:38:08.517Z,19.10
2023-05-20T17:40:35.862Z,19.10
2023-05-20T17:43:03.037Z,19.10
2023-05-20T17:45:30.078Z,19.20
2023-05-20T17:47:56.998Z,19.20
2023-05-20T17:50:24.032Z,19.20
2023-05-20T17:52:51.157Z,19.10
2023-05-20T17:55:18.385Z,19.10
2023-05-20T17:57:45.480Z,19.00
2023-05-20T18:00:13.182Z,19.00
2023-05-20T18:02:40.220Z,18.90
2023-05-20T18:05:07.733Z,18.80
2023-05-20T18:07:36.159Z,18.80
2023-05-20T18:10:04.554Z,18.70
2023-05-20T18:12:31.609Z,18.70
2023-05-20T18:14:58.595Z,18.70
2023-05-20T18:17:25.807Z,18.70
2023-05-20T18:19:53.073Z,18.60
2023-05-20T18:22:20.192Z,18.60
2023-05-20T18:24:47.279Z,18.60
2023-05-20T18:27:14.303Z,18.50
2023-05-20T18:29:41.218Z,18.50
2023-05-20T18:32:11.388Z,18.40
2023-05-20T18:34:38.634Z,18.30
2023-05-20T18:37:06.208Z,18.20
2023-05-20T18:39:33.137Z,18.10
2023-05-20T18:42:00.201Z,18.00
2023-05-20T18:44:27.469Z,18.00
2023-05-20T18:46:54.536Z,17.90
2023-05-20T18:49:21.525Z,17.90
2023-05-20T18:51:48.439Z,17.90
2023-05-20T18:54:15.512Z,17.90
2023-05-20T18:56:42.420Z,17.90
2023-05-20T18:59:09.462Z,17.90
2023-05-20T19:01:36.544Z,17.90
2023-05-20T19:04:03.750Z,17.80
2023-05-20T19:06:31.923Z,17.80
2023-05-20T19:08:58.978Z,17.80
2023-05-20T19:11:26.015Z,17.80
2023-05-20T19:13:52.954Z,17.70
2023-05-20T19:16:20.353Z,17.70
2023-05-20T19:18:48.066Z,17.60
2023-05-20T19:21:15.295Z,17.60
2023-05-20T19:23:42.716Z,17.60
2023-05-20T19:26:10.215Z,17.50
2023-05-20T19:28:37.407Z,17.40
2023-05-20T19:31:04.413Z,17.30
2023-05-20T19:33:31.351Z,17.20
2023-05-20T19:35:58.368Z,17.20
2023-05-20T19:38:25.668Z,17.00
2023-05-20T19:40:52.674Z,16.90
2023-05-20T19:43:19.743Z,16.90
2023-05-20T19:45:46.864Z,16.90
2023-05-20T19:48:13.829Z,16.90
2023-05-20T19:50:40.849Z,17.00
2023-05-20T19:53:07.930Z,16.90
2023-05-20T19:55:36.662Z,16.90
2023-05-20T19:58:03.905Z,16.90
2023-05-20T20:00:31.016Z,16.90
2023-05-20T20:02:58.720Z,16.90
2023-05-20T20:05:28.410Z,16.80
2023-05-20T20:07:55.535Z,16.80
2023-05-20T20:10:22.505Z,16.80
2023-05-20T20:12:49.917Z,16.80
2023-05-20T20:15:17.042Z,16.80
2023-05-20T20:17:45.695Z,16.80
2023-05-20T20:20:16.806Z,16.80
2023-05-20T20:22:44.092Z,16.70
2023-05-20T20:25:14.478Z,16.70
2023-05-20T20:27:44.020Z,16.60
2023-05-20T20:30:15.068Z,16.60
2023-05-20T20:32:42.563Z,16.50
2023-05-20T20:35:10.859Z,16.40
2023-05-20T20:37:38.473Z,16.40
2023-05-20T20:40:08.122Z,16.30
2023-05-20T20:42:35.122Z,16.30
2023-05-20T20:45:02.447Z,16.20
2023-05-20T20:47:29.726Z,16.30
2023-05-20T20:49:56.896Z,16.20
2023-05-20T20:52:24.064Z,16.20
2023-05-20T20:54:51.008Z,16.20
2023-05-20T20:57:17.945Z,16.20
2023-05-20T20:59:48.033Z,16.20
2023-05-20T21:02:15.781Z,16.20
2023-05-20T21:04:43.630Z,16.20
2023-05-20T21:07:12.334Z,16.20
2023-05-20T21:09:39.387Z,16.10
2023-05-20T21:12:06.939Z,16.10
2023-05-20T21:14:34.111Z,16.10
2023-05-20T21:17:01.308Z,16.00
2023-05-20T21:19:29.975Z,16.00
2023-05-20T21:21:57.413Z,16.00
2023-05-20T21:24:24.393Z,16.00
2023-05-20T21:26:51.478Z,15.90
2023-05-20T21:29:18.380Z,16.00
2023-05-20T21:31:45.572Z,16.00
2023-05-20T21:34:12.503Z,15.90
2023-05-20T21:36:39.594Z,16.00
2023-05-20T21:39:06.672Z,15.90
2023-05-20T21:41:33.719Z,15.90
2023-05-20T21:44:00.776Z,15.90
2023-05-20T21:46:27.832Z,15.80
2023-05-20T21:48:54.961Z,15.80
2023-05-20T21:51:21.945Z,15.80
2023-05-20T21:53:48.947Z,15.70
2023-05-20T21:56:15.906Z,15.70
2023-05-20T21:58:42.876Z,15.70
2023-05-20T22:01:10.470Z,15.60
2023-05-20T22:03:38.465Z,15.50
2023-05-20T22:06:06.152Z,15.50
2023-05-20T22:08:36.052Z,15.40
2023-05-20T22:11:07.551Z,15.30
2023-05-20T22:13:35.778Z,15.30
2023-05-20T22:16:05.123Z,15.20
2023-05-20T22:18:32.304Z,15.20
2023-05-20T22:21:00.446Z,15.20
2023-05-20T22:23:28.566Z,15.20
2023-05-20T22:25:55.757Z,15.20
2023-05-20T22:28:23.770Z,15.20
2023-05-20T22:30:51.663Z,15.20
2023-05-20T22:33:18.797Z,15.20
2023-05-20T22:35:46.091Z,15.30
2023-05-20T22:38:13.117Z,15.30
2023-05-20T22:40:40.154Z,15.40
2023-05-20T22:43:07.179Z,15.40
2023-05-20T22:45:35.869Z,15.40
2023-05-20T22:48:04.536Z,15.50
2023-05-20T22:50:35.343Z,15.50
2023-05-20T22:53:02.974Z,15.50
2023-05-20T22:55:30.080Z,15.50
2023-05-20T22:57:57.881Z,15.50
2023-05-20T23:00:25.002Z,15.40
2023-05-20T23:02:52.544Z,15.40
2023-05-20T23:05:19.784Z,15.20
2023-05-20T23:07:47.143Z,15.10
2023-05-20T23:10:14.163Z,15.00
2023-05-20T23:12:41.111Z,14.90
2023-05-20T23:15:08.985Z,14.90
2023-05-20T23:17:36.580Z,14.90
2023-05-20T23:20:14.538Z,14.90
2023-05-20T23:22:41.650Z,14.90
2023-05-20T23:25:09.252Z,14.90
2023-05-20T23:27:36.223Z,14.90
2023-05-20T23:30:03.444Z,14.80
2023-05-20T23:32:30.699Z,14.70
2023-05-20T23:34:57.822Z,14.50
2023-05-20T23:37:24.798Z,14.50
2023-05-20T23:39:51.786Z,14.50
2023-05-20T23:42:18.766Z,14.40
2023-05-20T23:44:45.864Z,14.40
2023-05-20T23:47:13.614Z,14.40
2023-05-20T23:49:41.711Z,14.40
2023-05-20T23:52:08.818Z,14.40
2023-05-20T23:54:35.865Z,14.40
2023-05-20T23:57:10.217Z,14.40
2023-05-20T23:59:37.893Z,14.30
